sensor_id;sensor_type;location;lat;lon;timestamp;P1;durP1;ratioP1;P2;durP2;ratioP2
66751;SDS011;53663;42.676;23.238;2022-12-18T00:00:28;5.53;;;3.85;;
66751;SDS011;53663;42.676;23.238;2022-12-18T00:02:55;6.53;;;4.00;;
66751;SDS011;53663;42.676;23.238;2022-12-18T00:05:20;5.25;;;3.65;;
66751;SDS011;53663;42.676;23.238;2022-12-18T00:07:46;6.65;;;3.90;;
66751;SDS011;53663;42.676;23.238;2022-12-18T00:10:11;7.28;;;4.20;;
66751;SDS011;53663;42.676;23.238;2022-12-18T00:12:37;6.43;;;4.18;;
66751;SDS011;53663;42.676;23.238;2022-12-18T00:15:03;6.97;;;4.25;;
66751;SDS011;53663;42.676;23.238;2022-12-18T00:17:28;8.48;;;4.30;;
66751;SDS011;53663;42.676;23.238;2022-12-18T00:19:54;5.90;;;3.72;;
66751;SDS011;53663;42.676;23.238;2022-12-18T00:22:19;5.28;;;3.83;;
66751;SDS011;53663;42.676;23.238;2022-12-18T00:24:45;6.15;;;3.70;;
66751;SDS011;53663;42.676;23.238;2022-12-18T00:27:10;5.60;;;3.50;;
66751;SDS011;53663;42.676;23.238;2022-12-18T00:29:36;5.10;;;3.35;;
66751;SDS011;53663;42.676;23.238;2022-12-18T00:32:04;9.05;;;3.92;;
66751;SDS011;53663;42.676;23.238;2022-12-18T00:34:30;5.53;;;3.72;;
66751;SDS011;53663;42.676;23.238;2022-12-18T00:36:55;6.38;;;4.18;;
66751;SDS011;53663;42.676;23.238;2022-12-18T00:39:21;6.00;;;3.97;;
66751;SDS011;53663;42.676;23.238;2022-12-18T00:41:46;7.47;;;4.05;;
66751;SDS011;53663;42.676;23.238;2022-12-18T00:44:31;6.88;;;4.38;;
66751;SDS011;53663;42.676;23.238;2022-12-18T00:46:57;6.25;;;3.70;;
66751;SDS011;53663;42.676;23.238;2022-12-18T00:49:22;5.82;;;3.78;;
66751;SDS011;53663;42.676;23.238;2022-12-18T00:51:48;7.35;;;3.80;;
66751;SDS011;53663;42.676;23.238;2022-12-18T00:54:14;7.35;;;4.60;;
66751;SDS011;53663;42.676;23.238;2022-12-18T00:56:40;8.50;;;4.60;;
66751;SDS011;53663;42.676;23.238;2022-12-18T00:59:06;6.13;;;4.05;;
66751;SDS011;53663;42.676;23.238;2022-12-18T01:01:31;7.22;;;3.90;;
66751;SDS011;53663;42.676;23.238;2022-12-18T01:03:58;6.40;;;3.90;;
66751;SDS011;53663;42.676;23.238;2022-12-18T01:06:25;6.60;;;3.97;;
66751;SDS011;53663;42.676;23.238;2022-12-18T01:08:51;7.35;;;4.28;;
66751;SDS011;53663;42.676;23.238;2022-12-18T01:11:17;6.65;;;3.75;;
66751;SDS011;53663;42.676;23.238;2022-12-18T01:13:44;7.00;;;4.13;;
66751;SDS011;53663;42.676;23.238;2022-12-18T01:16:14;5.95;;;4.07;;
66751;SDS011;53663;42.676;23.238;2022-12-18T01:21:07;6.80;;;4.18;;
66751;SDS011;53663;42.676;23.238;2022-12-18T01:23:36;7.05;;;4.60;;
66751;SDS011;53663;42.676;23.238;2022-12-18T01:26:06;9.05;;;4.47;;
66751;SDS011;53663;42.676;23.238;2022-12-18T01:28:34;7.07;;;5.10;;
66751;SDS011;53663;42.676;23.238;2022-12-18T01:33:57;8.05;;;4.78;;
66751;SDS011;53663;42.676;23.238;2022-12-18T01:36:26;8.32;;;4.70;;
66751;SDS011;53663;42.676;23.238;2022-12-18T01:38:54;11.80;;;5.20;;
66751;SDS011;53663;42.676;23.238;2022-12-18T01:41:24;8.75;;;5.28;;
66751;SDS011;53663;42.676;23.238;2022-12-18T01:43:55;11.82;;;5.35;;
66751;SDS011;53663;42.676;23.238;2022-12-18T01:46:23;9.60;;;5.32;;
66751;SDS011;53663;42.676;23.238;2022-12-18T01:48:56;8.20;;;5.20;;
66751;SDS011;53663;42.676;23.238;2022-12-18T01:51:25;8.38;;;5.22;;
66751;SDS011;53663;42.676;23.238;2022-12-18T01:53:53;7.88;;;5.40;;
66751;SDS011;53663;42.676;23.238;2022-12-18T01:56:19;9.27;;;5.20;;
66751;SDS011;53663;42.676;23.238;2022-12-18T02:01:22;9.43;;;5.13;;
66751;SDS011;53663;42.676;23.238;2022-12-18T02:03:48;8.00;;;4.82;;
66751;SDS011;53663;42.676;23.238;2022-12-18T02:06:16;7.70;;;5.28;;
66751;SDS011;53663;42.676;23.238;2022-12-18T02:12:13;7.40;;;4.80;;
66751;SDS011;53663;42.676;23.238;2022-12-18T02:14:44;8.27;;;4.95;;
66751;SDS011;53663;42.676;23.238;2022-12-18T02:17:43;6.65;;;4.80;;
66751;SDS011;53663;42.676;23.238;2022-12-18T02:20:31;8.23;;;4.57;;
66751;SDS011;53663;42.676;23.238;2022-12-18T02:23:20;9.27;;;4.93;;
66751;SDS011;53663;42.676;23.238;2022-12-18T02:31:20;6.07;;;3.70;;
66751;SDS011;53663;42.676;23.238;2022-12-18T02:33:50;6.57;;;3.92;;
66751;SDS011;53663;42.676;23.238;2022-12-18T02:36:17;6.05;;;4.13;;
66751;SDS011;53663;42.676;23.238;2022-12-18T02:38:46;8.35;;;4.50;;
66751;SDS011;53663;42.676;23.238;2022-12-18T02:41:15;5.15;;;3.42;;
66751;SDS011;53663;42.676;23.238;2022-12-18T02:44:07;8.52;;;4.07;;
66751;SDS011;53663;42.676;23.238;2022-12-18T02:46:33;6.50;;;4.10;;
66751;SDS011;53663;42.676;23.238;2022-12-18T02:49:09;5.50;;;3.67;;
66751;SDS011;53663;42.676;23.238;2022-12-18T02:56:56;6.68;;;4.10;;
66751;SDS011;53663;42.676;23.238;2022-12-18T02:59:34;6.55;;;4.53;;
66751;SDS011;53663;42.676;23.238;2022-12-18T03:05:07;6.13;;;3.70;;
66751;SDS011;53663;42.676;23.238;2022-12-18T03:07:42;7.93;;;3.67;;
66751;SDS011;53663;42.676;23.238;2022-12-18T03:10:14;5.60;;;3.85;;
66751;SDS011;53663;42.676;23.238;2022-12-18T03:12:45;6.03;;;3.85;;
66751;SDS011;53663;42.676;23.238;2022-12-18T03:15:21;6.20;;;3.60;;
66751;SDS011;53663;42.676;23.238;2022-12-18T03:17:57;5.95;;;3.90;;
66751;SDS011;53663;42.676;23.238;2022-12-18T03:20:29;5.85;;;3.88;;
66751;SDS011;53663;42.676;23.238;2022-12-18T03:22:59;6.43;;;3.70;;
66751;SDS011;53663;42.676;23.238;2022-12-18T03:25:31;6.15;;;3.88;;
66751;SDS011;53663;42.676;23.238;2022-12-18T03:28:00;5.75;;;3.53;;
66751;SDS011;53663;42.676;23.238;2022-12-18T03:30:27;6.35;;;3.70;;
66751;SDS011;53663;42.676;23.238;2022-12-18T03:33:01;5.78;;;3.42;;
66751;SDS011;53663;42.676;23.238;2022-12-18T03:35:32;6.43;;;3.80;;
66751;SDS011;53663;42.676;23.238;2022-12-18T03:38:00;7.65;;;4.35;;
66751;SDS011;53663;42.676;23.238;2022-12-18T03:40:29;6.72;;;4.47;;
66751;SDS011;53663;42.676;23.238;2022-12-18T03:43:17;6.45;;;3.92;;
66751;SDS011;53663;42.676;23.238;2022-12-18T03:45:51;6.65;;;3.95;;
66751;SDS011;53663;42.676;23.238;2022-12-18T03:56:34;7.75;;;4.15;;
66751;SDS011;53663;42.676;23.238;2022-12-18T03:59:04;5.50;;;3.65;;
66751;SDS011;53663;42.676;23.238;2022-12-18T04:01:33;5.35;;;3.28;;
66751;SDS011;53663;42.676;23.238;2022-12-18T04:04:02;6.10;;;3.75;;
66751;SDS011;53663;42.676;23.238;2022-12-18T04:08:59;6.00;;;3.83;;
66751;SDS011;53663;42.676;23.238;2022-12-18T04:11:26;8.10;;;4.13;;
66751;SDS011;53663;42.676;23.238;2022-12-18T04:13:55;7.00;;;4.30;;
66751;SDS011;53663;42.676;23.238;2022-12-18T04:16:22;8.52;;;4.15;;
66751;SDS011;53663;42.676;23.238;2022-12-18T04:18:52;7.00;;;4.25;;
66751;SDS011;53663;42.676;23.238;2022-12-18T04:21:19;11.13;;;4.45;;
66751;SDS011;53663;42.676;23.238;2022-12-18T04:23:46;7.57;;;4.53;;
66751;SDS011;53663;42.676;23.238;2022-12-18T04:26:12;6.88;;;4.40;;
66751;SDS011;53663;42.676;23.238;2022-12-18T04:28:53;7.38;;;4.50;;
66751;SDS011;53663;42.676;23.238;2022-12-18T04:31:18;7.78;;;4.68;;
66751;SDS011;53663;42.676;23.238;2022-12-18T04:33:44;8.50;;;5.03;;
66751;SDS011;53663;42.676;23.238;2022-12-18T04:36:09;9.00;;;5.03;;
66751;SDS011;53663;42.676;23.238;2022-12-18T04:38:38;9.13;;;5.50;;
66751;SDS011;53663;42.676;23.238;2022-12-18T04:41:07;10.07;;;5.05;;
66751;SDS011;53663;42.676;23.238;2022-12-18T04:43:33;9.25;;;5.15;;
66751;SDS011;53663;42.676;23.238;2022-12-18T04:46:05;11.30;;;5.75;;
66751;SDS011;53663;42.676;23.238;2022-12-18T04:48:32;7.43;;;4.70;;
66751;SDS011;53663;42.676;23.238;2022-12-18T04:50:58;10.07;;;5.05;;
66751;SDS011;53663;42.676;23.238;2022-12-18T04:53:24;9.90;;;5.22;;
66751;SDS011;53663;42.676;23.238;2022-12-18T04:55:49;8.18;;;5.28;;
66751;SDS011;53663;42.676;23.238;2022-12-18T04:58:15;8.48;;;5.30;;
66751;SDS011;53663;42.676;23.238;2022-12-18T05:00:40;10.55;;;5.45;;
66751;SDS011;53663;42.676;23.238;2022-12-18T05:03:06;9.15;;;5.03;;
66751;SDS011;53663;42.676;23.238;2022-12-18T05:05:33;9.73;;;4.60;;
66751;SDS011;53663;42.676;23.238;2022-12-18T05:08:00;9.63;;;5.68;;
66751;SDS011;53663;42.676;23.238;2022-12-18T05:10:25;8.82;;;4.72;;
66751;SDS011;53663;42.676;23.238;2022-12-18T05:12:51;8.73;;;5.47;;
66751;SDS011;53663;42.676;23.238;2022-12-18T05:15:31;9.27;;;5.35;;
66751;SDS011;53663;42.676;23.238;2022-12-18T05:17:58;7.72;;;4.85;;
66751;SDS011;53663;42.676;23.238;2022-12-18T05:20:24;9.55;;;5.65;;
66751;SDS011;53663;42.676;23.238;2022-12-18T05:22:51;8.13;;;4.93;;
66751;SDS011;53663;42.676;23.238;2022-12-18T05:25:17;10.63;;;5.82;;
66751;SDS011;53663;42.676;23.238;2022-12-18T05:27:43;10.80;;;5.70;;
66751;SDS011;53663;42.676;23.238;2022-12-18T05:30:09;11.88;;;5.90;;
66751;SDS011;53663;42.676;23.238;2022-12-18T05:32:35;8.82;;;6.05;;
66751;SDS011;53663;42.676;23.238;2022-12-18T05:35:01;12.73;;;5.97;;
66751;SDS011;53663;42.676;23.238;2022-12-18T05:37:27;10.18;;;5.30;;
66751;SDS011;53663;42.676;23.238;2022-12-18T05:39:52;9.80;;;6.47;;
66751;SDS011;53663;42.676;23.238;2022-12-18T05:42:18;13.68;;;7.30;;
66751;SDS011;53663;42.676;23.238;2022-12-18T05:44:43;13.52;;;7.07;;
66751;SDS011;53663;42.676;23.238;2022-12-18T05:47:09;13.15;;;6.78;;
66751;SDS011;53663;42.676;23.238;2022-12-18T05:49:34;13.50;;;7.80;;
66751;SDS011;53663;42.676;23.238;2022-12-18T05:52:00;12.45;;;7.28;;
66751;SDS011;53663;42.676;23.238;2022-12-18T05:54:29;13.55;;;7.88;;
66751;SDS011;53663;42.676;23.238;2022-12-18T05:56:54;12.13;;;7.35;;
66751;SDS011;53663;42.676;23.238;2022-12-18T05:59:20;15.23;;;7.70;;
66751;SDS011;53663;42.676;23.238;2022-12-18T06:01:46;11.13;;;6.93;;
66751;SDS011;53663;42.676;23.238;2022-12-18T06:04:11;11.00;;;6.32;;
66751;SDS011;53663;42.676;23.238;2022-12-18T06:06:37;13.93;;;7.03;;
66751;SDS011;53663;42.676;23.238;2022-12-18T06:09:02;11.82;;;6.22;;
66751;SDS011;53663;42.676;23.238;2022-12-18T06:11:33;11.70;;;6.80;;
66751;SDS011;53663;42.676;23.238;2022-12-18T06:14:00;12.80;;;6.88;;
66751;SDS011;53663;42.676;23.238;2022-12-18T06:16:26;12.30;;;6.88;;
66751;SDS011;53663;42.676;23.238;2022-12-18T06:18:53;13.00;;;6.40;;
66751;SDS011;53663;42.676;23.238;2022-12-18T06:21:21;14.73;;;6.78;;
66751;SDS011;53663;42.676;23.238;2022-12-18T06:23:47;12.65;;;6.72;;
66751;SDS011;53663;42.676;23.238;2022-12-18T06:26:13;15.02;;;6.43;;
66751;SDS011;53663;42.676;23.238;2022-12-18T06:28:39;12.90;;;6.72;;
66751;SDS011;53663;42.676;23.238;2022-12-18T06:31:05;12.73;;;7.03;;
66751;SDS011;53663;42.676;23.238;2022-12-18T06:33:31;16.17;;;7.57;;
66751;SDS011;53663;42.676;23.238;2022-12-18T06:36:01;13.25;;;7.07;;
66751;SDS011;53663;42.676;23.238;2022-12-18T06:38:35;10.90;;;6.82;;
66751;SDS011;53663;42.676;23.238;2022-12-18T06:41:05;13.88;;;7.55;;
66751;SDS011;53663;42.676;23.238;2022-12-18T06:43:32;14.43;;;7.72;;
66751;SDS011;53663;42.676;23.238;2022-12-18T06:46:01;13.70;;;7.75;;
66751;SDS011;53663;42.676;23.238;2022-12-18T06:48:27;15.05;;;8.20;;
66751;SDS011;53663;42.676;23.238;2022-12-18T06:50:53;13.18;;;7.60;;
66751;SDS011;53663;42.676;23.238;2022-12-18T06:53:18;12.90;;;7.40;;
66751;SDS011;53663;42.676;23.238;2022-12-18T06:55:44;15.00;;;8.38;;
66751;SDS011;53663;42.676;23.238;2022-12-18T06:58:09;15.38;;;8.07;;
66751;SDS011;53663;42.676;23.238;2022-12-18T07:00:35;13.20;;;7.90;;
66751;SDS011;53663;42.676;23.238;2022-12-18T07:03:01;16.02;;;8.20;;
66751;SDS011;53663;42.676;23.238;2022-12-18T07:05:26;15.25;;;7.28;;
66751;SDS011;53663;42.676;23.238;2022-12-18T07:07:52;14.80;;;7.85;;
66751;SDS011;53663;42.676;23.238;2022-12-18T07:10:17;13.73;;;7.65;;
66751;SDS011;53663;42.676;23.238;2022-12-18T07:12:43;16.52;;;9.18;;
66751;SDS011;53663;42.676;23.238;2022-12-18T07:15:08;18.13;;;10.23;;
66751;SDS011;53663;42.676;23.238;2022-12-18T07:17:34;19.25;;;9.75;;
66751;SDS011;53663;42.676;23.238;2022-12-18T07:20:00;17.02;;;9.43;;
66751;SDS011;53663;42.676;23.238;2022-12-18T07:22:26;17.80;;;9.05;;
66751;SDS011;53663;42.676;23.238;2022-12-18T07:24:51;19.73;;;9.80;;
66751;SDS011;53663;42.676;23.238;2022-12-18T07:27:17;18.55;;;9.23;;
66751;SDS011;53663;42.676;23.238;2022-12-18T07:29:42;22.00;;;11.25;;
66751;SDS011;53663;42.676;23.238;2022-12-18T07:32:08;22.25;;;11.95;;
66751;SDS011;53663;42.676;23.238;2022-12-18T07:34:34;22.33;;;10.85;;
66751;SDS011;53663;42.676;23.238;2022-12-18T07:36:59;30.98;;;14.52;;
66751;SDS011;53663;42.676;23.238;2022-12-18T07:39:25;32.97;;;15.60;;
66751;SDS011;53663;42.676;23.238;2022-12-18T07:41:50;29.60;;;10.63;;
66751;SDS011;53663;42.676;23.238;2022-12-18T07:44:34;18.83;;;9.20;;
66751;SDS011;53663;42.676;23.238;2022-12-18T07:47:01;17.20;;;9.20;;
66751;SDS011;53663;42.676;23.238;2022-12-18T07:49:27;16.33;;;9.77;;
66751;SDS011;53663;42.676;23.238;2022-12-18T07:51:53;17.63;;;10.48;;
66751;SDS011;53663;42.676;23.238;2022-12-18T07:54:21;21.08;;;11.13;;
66751;SDS011;53663;42.676;23.238;2022-12-18T07:56:47;22.70;;;11.65;;
66751;SDS011;53663;42.676;23.238;2022-12-18T07:59:12;22.58;;;12.07;;
66751;SDS011;53663;42.676;23.238;2022-12-18T08:01:38;19.52;;;10.30;;
66751;SDS011;53663;42.676;23.238;2022-12-18T08:04:04;21.20;;;11.18;;
66751;SDS011;53663;42.676;23.238;2022-12-18T08:06:29;17.92;;;10.75;;
66751;SDS011;53663;42.676;23.238;2022-12-18T08:08:55;18.38;;;11.13;;
66751;SDS011;53663;42.676;23.238;2022-12-18T08:11:21;21.23;;;11.77;;
66751;SDS011;53663;42.676;23.238;2022-12-18T08:13:48;17.67;;;10.43;;
66751;SDS011;53663;42.676;23.238;2022-12-18T08:16:13;19.50;;;10.52;;
66751;SDS011;53663;42.676;23.238;2022-12-18T08:18:39;20.95;;;10.98;;
66751;SDS011;53663;42.676;23.238;2022-12-18T08:21:18;21.92;;;11.20;;
66751;SDS011;53663;42.676;23.238;2022-12-18T08:23:48;28.08;;;13.95;;
66751;SDS011;53663;42.676;23.238;2022-12-18T08:26:14;26.25;;;14.38;;
66751;SDS011;53663;42.676;23.238;2022-12-18T08:28:40;21.40;;;12.18;;
66751;SDS011;53663;42.676;23.238;2022-12-18T08:31:06;23.75;;;12.23;;
66751;SDS011;53663;42.676;23.238;2022-12-18T08:33:33;24.23;;;12.85;;
66751;SDS011;53663;42.676;23.238;2022-12-18T08:35:59;23.52;;;12.52;;
66751;SDS011;53663;42.676;23.238;2022-12-18T08:38:25;21.70;;;12.80;;
66751;SDS011;53663;42.676;23.238;2022-12-18T08:41:04;21.92;;;11.73;;
66751;SDS011;53663;42.676;23.238;2022-12-18T08:43:31;20.75;;;11.02;;
66751;SDS011;53663;42.676;23.238;2022-12-18T08:46:16;24.00;;;13.25;;
66751;SDS011;53663;42.676;23.238;2022-12-18T08:48:42;23.70;;;12.05;;
66751;SDS011;53663;42.676;23.238;2022-12-18T08:51:08;22.98;;;13.20;;
66751;SDS011;53663;42.676;23.238;2022-12-18T08:53:35;22.73;;;12.52;;
66751;SDS011;53663;42.676;23.238;2022-12-18T08:56:01;23.05;;;11.88;;
66751;SDS011;53663;42.676;23.238;2022-12-18T08:58:27;24.45;;;12.00;;
66751;SDS011;53663;42.676;23.238;2022-12-18T09:00:52;22.58;;;11.85;;
66751;SDS011;53663;42.676;23.238;2022-12-18T09:03:18;23.48;;;12.50;;
66751;SDS011;53663;42.676;23.238;2022-12-18T09:05:47;22.02;;;11.93;;
66751;SDS011;53663;42.676;23.238;2022-12-18T09:08:13;21.00;;;11.38;;
66751;SDS011;53663;42.676;23.238;2022-12-18T09:10:42;24.88;;;12.98;;
66751;SDS011;53663;42.676;23.238;2022-12-18T09:13:09;21.13;;;12.13;;
66751;SDS011;53663;42.676;23.238;2022-12-18T09:15:40;22.17;;;11.45;;
66751;SDS011;53663;42.676;23.238;2022-12-18T09:18:13;19.05;;;10.85;;
66751;SDS011;53663;42.676;23.238;2022-12-18T09:20:39;19.08;;;11.00;;
66751;SDS011;53663;42.676;23.238;2022-12-18T09:23:05;18.38;;;10.75;;
66751;SDS011;53663;42.676;23.238;2022-12-18T09:25:32;21.35;;;11.85;;
66751;SDS011;53663;42.676;23.238;2022-12-18T09:28:01;20.10;;;11.02;;
66751;SDS011;53663;42.676;23.238;2022-12-18T09:30:28;20.85;;;11.35;;
66751;SDS011;53663;42.676;23.238;2022-12-18T09:32:54;20.70;;;10.93;;
66751;SDS011;53663;42.676;23.238;2022-12-18T09:35:20;22.55;;;11.25;;
66751;SDS011;53663;42.676;23.238;2022-12-18T09:37:46;19.27;;;10.85;;
66751;SDS011;53663;42.676;23.238;2022-12-18T09:40:15;22.95;;;11.70;;
66751;SDS011;53663;42.676;23.238;2022-12-18T09:42:44;20.02;;;11.68;;
66751;SDS011;53663;42.676;23.238;2022-12-18T09:45:16;18.85;;;10.77;;
66751;SDS011;53663;42.676;23.238;2022-12-18T09:47:43;18.65;;;10.65;;
66751;SDS011;53663;42.676;23.238;2022-12-18T09:50:32;20.67;;;10.48;;
66751;SDS011;53663;42.676;23.238;2022-12-18T09:53:02;19.58;;;10.65;;
66751;SDS011;53663;42.676;23.238;2022-12-18T09:55:43;22.23;;;10.82;;
66751;SDS011;53663;42.676;23.238;2022-12-18T10:00:50;21.80;;;11.15;;
66751;SDS011;53663;42.676;23.238;2022-12-18T10:03:17;20.40;;;11.23;;
66751;SDS011;53663;42.676;23.238;2022-12-18T10:16:59;21.70;;;11.85;;
66751;SDS011;53663;42.676;23.238;2022-12-18T10:19:40;22.83;;;11.30;;
66751;SDS011;53663;42.676;23.238;2022-12-18T10:28:10;19.27;;;11.00;;
66751;SDS011;53663;42.676;23.238;2022-12-18T10:30:39;23.92;;;11.32;;
66751;SDS011;53663;42.676;23.238;2022-12-18T10:33:17;23.35;;;12.52;;
66751;SDS011;53663;42.676;23.238;2022-12-18T10:35:44;23.73;;;11.40;;
66751;SDS011;53663;42.676;23.238;2022-12-18T10:40:51;38.08;;;17.13;;
66751;SDS011;53663;42.676;23.238;2022-12-18T10:45:58;25.38;;;11.20;;
66751;SDS011;53663;42.676;23.238;2022-12-18T10:54:37;24.17;;;11.40;;
66751;SDS011;53663;42.676;23.238;2022-12-18T10:56:40;21.05;;;10.40;;
66751;SDS011;53663;42.676;23.238;2022-12-18T10:59:06;21.30;;;10.02;;
66751;SDS011;53663;42.676;23.238;2022-12-18T11:01:47;19.48;;;9.38;;
66751;SDS011;53663;42.676;23.238;2022-12-18T11:04:23;21.15;;;11.43;;
66751;SDS011;53663;42.676;23.238;2022-12-18T11:06:57;23.98;;;11.38;;
66751;SDS011;53663;42.676;23.238;2022-12-18T11:09:26;22.08;;;10.98;;
66751;SDS011;53663;42.676;23.238;2022-12-18T11:11:54;20.80;;;10.05;;
66751;SDS011;53663;42.676;23.238;2022-12-18T11:17:31;19.42;;;9.63;;
66751;SDS011;53663;42.676;23.238;2022-12-18T11:20:04;18.90;;;9.45;;
66751;SDS011;53663;42.676;23.238;2022-12-18T11:22:34;21.10;;;9.38;;
66751;SDS011;53663;42.676;23.238;2022-12-18T11:25:04;18.58;;;8.70;;
66751;SDS011;53663;42.676;23.238;2022-12-18T11:32:45;21.88;;;9.07;;
66751;SDS011;53663;42.676;23.238;2022-12-18T11:37:40;19.73;;;9.82;;
66751;SDS011;53663;42.676;23.238;2022-12-18T11:40:13;16.80;;;8.30;;
66751;SDS011;53663;42.676;23.238;2022-12-18T11:42:45;17.50;;;8.80;;
66751;SDS011;53663;42.676;23.238;2022-12-18T11:50:48;17.63;;;8.65;;
66751;SDS011;53663;42.676;23.238;2022-12-18T11:53:14;19.15;;;9.35;;
66751;SDS011;53663;42.676;23.238;2022-12-18T12:01:02;16.08;;;8.60;;
66751;SDS011;53663;42.676;23.238;2022-12-18T12:19:43;16.55;;;8.68;;
66751;SDS011;53663;42.676;23.238;2022-12-18T12:33:37;19.30;;;9.85;;
66751;SDS011;53663;42.676;23.238;2022-12-18T12:39:11;19.33;;;10.27;;
66751;SDS011;53663;42.676;23.238;2022-12-18T12:41:43;19.42;;;10.45;;
66751;SDS011;53663;42.676;23.238;2022-12-18T12:44:32;21.85;;;10.68;;
66751;SDS011;53663;42.676;23.238;2022-12-18T12:49:50;21.73;;;11.43;;
66751;SDS011;53663;42.676;23.238;2022-12-18T12:55:05;19.95;;;10.55;;
66751;SDS011;53663;42.676;23.238;2022-12-18T12:57:39;18.33;;;10.70;;
66751;SDS011;53663;42.676;23.238;2022-12-18T13:07:47;19.45;;;10.32;;
66751;SDS011;53663;42.676;23.238;2022-12-18T13:12:51;20.75;;;10.45;;
66751;SDS011;53663;42.676;23.238;2022-12-18T13:15:24;18.83;;;9.63;;
66751;SDS011;53663;42.676;23.238;2022-12-18T13:20:34;18.80;;;9.88;;
66751;SDS011;53663;42.676;23.238;2022-12-18T13:26:28;18.42;;;9.75;;
66751;SDS011;53663;42.676;23.238;2022-12-18T13:31:12;14.20;;;8.13;;
66751;SDS011;53663;42.676;23.238;2022-12-18T13:36:44;17.30;;;9.77;;
66751;SDS011;53663;42.676;23.238;2022-12-18T13:41:35;21.02;;;10.85;;
66751;SDS011;53663;42.676;23.238;2022-12-18T13:46:59;20.90;;;10.73;;
66751;SDS011;53663;42.676;23.238;2022-12-18T13:52:18;19.08;;;9.95;;
66751;SDS011;53663;42.676;23.238;2022-12-18T13:54:56;19.38;;;10.73;;
66751;SDS011;53663;42.676;23.238;2022-12-18T13:57:37;19.25;;;10.45;;
66751;SDS011;53663;42.676;23.238;2022-12-18T14:02:47;19.92;;;10.63;;
66751;SDS011;53663;42.676;23.238;2022-12-18T14:05:26;19.95;;;10.00;;
66751;SDS011;53663;42.676;23.238;2022-12-18T14:07:55;21.13;;;9.80;;
66751;SDS011;53663;42.676;23.238;2022-12-18T14:10:26;20.95;;;10.95;;
66751;SDS011;53663;42.676;23.238;2022-12-18T14:12:52;20.73;;;11.88;;
66751;SDS011;53663;42.676;23.238;2022-12-18T14:15:24;27.73;;;12.23;;
66751;SDS011;53663;42.676;23.238;2022-12-18T14:17:51;23.50;;;11.82;;
66751;SDS011;53663;42.676;23.238;2022-12-18T14:20:17;20.20;;;9.93;;
66751;SDS011;53663;42.676;23.238;2022-12-18T14:22:47;20.27;;;9.52;;
66751;SDS011;53663;42.676;23.238;2022-12-18T14:27:51;21.52;;;10.48;;
66751;SDS011;53663;42.676;23.238;2022-12-18T14:35:34;20.15;;;9.85;;
66751;SDS011;53663;42.676;23.238;2022-12-18T14:38:22;18.40;;;9.40;;
66751;SDS011;53663;42.676;23.238;2022-12-18T14:43:33;20.00;;;9.85;;
66751;SDS011;53663;42.676;23.238;2022-12-18T14:46:01;21.63;;;11.15;;
66751;SDS011;53663;42.676;23.238;2022-12-18T14:48:36;27.40;;;12.38;;
66751;SDS011;53663;42.676;23.238;2022-12-18T14:53:42;23.52;;;10.98;;
66751;SDS011;53663;42.676;23.238;2022-12-18T14:58:46;24.70;;;10.98;;
66751;SDS011;53663;42.676;23.238;2022-12-18T15:03:54;19.30;;;10.50;;
66751;SDS011;53663;42.676;23.238;2022-12-18T15:06:29;18.80;;;9.77;;
66751;SDS011;53663;42.676;23.238;2022-12-18T15:09:06;18.38;;;9.13;;
66751;SDS011;53663;42.676;23.238;2022-12-18T15:11:47;17.60;;;10.00;;
66751;SDS011;53663;42.676;23.238;2022-12-18T15:17:21;23.70;;;10.05;;
66751;SDS011;53663;42.676;23.238;2022-12-18T15:19:49;19.40;;;9.70;;
66751;SDS011;53663;42.676;23.238;2022-12-18T15:22:18;18.83;;;9.13;;
66751;SDS011;53663;42.676;23.238;2022-12-18T15:24:45;21.30;;;9.77;;
66751;SDS011;53663;42.676;23.238;2022-12-18T15:27:27;20.15;;;10.32;;
66751;SDS011;53663;42.676;23.238;2022-12-18T15:32:37;22.50;;;11.27;;
66751;SDS011;53663;42.676;23.238;2022-12-18T15:37:34;19.73;;;10.13;;
66751;SDS011;53663;42.676;23.238;2022-12-18T15:40:00;19.40;;;9.68;;
66751;SDS011;53663;42.676;23.238;2022-12-18T15:42:27;24.38;;;10.88;;
66751;SDS011;53663;42.676;23.238;2022-12-18T15:45:12;17.52;;;9.77;;
66751;SDS011;53663;42.676;23.238;2022-12-18T15:47:38;18.17;;;9.98;;
66751;SDS011;53663;42.676;23.238;2022-12-18T15:50:04;19.48;;;10.30;;
66751;SDS011;53663;42.676;23.238;2022-12-18T15:52:32;17.75;;;9.93;;
66751;SDS011;53663;42.676;23.238;2022-12-18T15:55:05;17.17;;;8.38;;
66751;SDS011;53663;42.676;23.238;2022-12-18T15:57:54;19.40;;;9.50;;
66751;SDS011;53663;42.676;23.238;2022-12-18T16:00:19;19.48;;;9.52;;
66751;SDS011;53663;42.676;23.238;2022-12-18T16:02:45;15.88;;;9.73;;
66751;SDS011;53663;42.676;23.238;2022-12-18T16:05:14;20.08;;;9.60;;
66751;SDS011;53663;42.676;23.238;2022-12-18T16:07:42;29.65;;;14.27;;
66751;SDS011;53663;42.676;23.238;2022-12-18T16:10:08;25.65;;;11.75;;
66751;SDS011;53663;42.676;23.238;2022-12-18T16:12:34;24.25;;;9.93;;
66751;SDS011;53663;42.676;23.238;2022-12-18T16:15:00;18.13;;;9.68;;
66751;SDS011;53663;42.676;23.238;2022-12-18T16:17:26;19.70;;;10.07;;
66751;SDS011;53663;42.676;23.238;2022-12-18T16:19:52;18.52;;;9.40;;
66751;SDS011;53663;42.676;23.238;2022-12-18T16:22:21;20.80;;;9.52;;
66751;SDS011;53663;42.676;23.238;2022-12-18T16:24:50;18.33;;;9.68;;
66751;SDS011;53663;42.676;23.238;2022-12-18T16:27:17;24.35;;;10.02;;
66751;SDS011;53663;42.676;23.238;2022-12-18T16:29:43;16.75;;;9.15;;
66751;SDS011;53663;42.676;23.238;2022-12-18T16:32:10;19.75;;;10.02;;
66751;SDS011;53663;42.676;23.238;2022-12-18T16:34:39;21.75;;;11.27;;
66751;SDS011;53663;42.676;23.238;2022-12-18T16:37:05;18.70;;;10.27;;
66751;SDS011;53663;42.676;23.238;2022-12-18T16:39:32;17.35;;;9.20;;
66751;SDS011;53663;42.676;23.238;2022-12-18T16:41:59;18.60;;;9.40;;
66751;SDS011;53663;42.676;23.238;2022-12-18T16:44:25;21.38;;;9.55;;
66751;SDS011;53663;42.676;23.238;2022-12-18T16:46:51;15.50;;;8.32;;
66751;SDS011;53663;42.676;23.238;2022-12-18T16:49:17;17.65;;;9.40;;
66751;SDS011;53663;42.676;23.238;2022-12-18T16:51:43;17.60;;;9.88;;
66751;SDS011;53663;42.676;23.238;2022-12-18T16:54:10;20.90;;;9.40;;
66751;SDS011;53663;42.676;23.238;2022-12-18T16:56:36;20.05;;;9.50;;
66751;SDS011;53663;42.676;23.238;2022-12-18T16:59:04;19.00;;;9.82;;
66751;SDS011;53663;42.676;23.238;2022-12-18T17:01:30;23.25;;;11.27;;
66751;SDS011;53663;42.676;23.238;2022-12-18T17:03:57;19.55;;;9.93;;
66751;SDS011;53663;42.676;23.238;2022-12-18T17:06:26;18.13;;;8.55;;
66751;SDS011;53663;42.676;23.238;2022-12-18T17:11:25;21.50;;;10.20;;
66751;SDS011;53663;42.676;23.238;2022-12-18T17:13:52;26.67;;;12.00;;
66751;SDS011;53663;42.676;23.238;2022-12-18T17:16:17;24.58;;;12.38;;
66751;SDS011;53663;42.676;23.238;2022-12-18T17:18:43;20.90;;;11.23;;
66751;SDS011;53663;42.676;23.238;2022-12-18T17:21:10;22.40;;;10.50;;
66751;SDS011;53663;42.676;23.238;2022-12-18T17:23:37;24.25;;;11.07;;
66751;SDS011;53663;42.676;23.238;2022-12-18T17:26:03;16.77;;;9.35;;
66751;SDS011;53663;42.676;23.238;2022-12-18T17:28:31;20.08;;;9.15;;
66751;SDS011;53663;42.676;23.238;2022-12-18T17:30:57;17.48;;;9.25;;
66751;SDS011;53663;42.676;23.238;2022-12-18T17:33:23;19.23;;;9.90;;
66751;SDS011;53663;42.676;23.238;2022-12-18T17:35:48;22.42;;;10.63;;